Time;durP1;ratioP1;P1;durP2;ratioP2;P2;SDS_P1;SDS_P2;PMS_P1;PMS_P2;Temp;Humidity;BMP_temperature;BMP_pressure;BME280_temperature;BME280_humidity;BME280_pressure;Samples;Min_cycle;Max_cycle;Signal;HPM_P1;HPM_P2
2022/07/28 00:01:18;;;;;;;7.68;1.60;;;18.70;1.00;;;;;;7362202;19;20006;-68
2022/07/28 00:03:51;;;;;;;2.67;1.20;;;18.70;1.00;;;;;;7385062;19;20006;-69
2022/07/28 00:06:21;;;;;;;2.95;1.38;;;18.70;1.00;;;;;;7358062;19;20006;-69
2022/07/28 00:08:51;;;;;;;4.18;1.50;;;18.60;1.00;;;;;;7358181;19;20014;-70
2022/07/28 00:11:21;;;;;;;3.90;1.50;;;18.60;1.00;;;;;;7363423;19;20013;-70
2022/07/28 00:13:50;;;;;;;5.68;1.60;;;18.60;1.00;;;;;;7362043;19;20014;-69
2022/07/28 00:16:23;;;;;;;1.75;1.27;;;18.50;1.00;;;;;;7359599;19;20465;-69
2022/07/28 00:18:56;;;;;;;3.05;1.25;;;18.40;1.00;;;;;;7380314;19;20339;-69
2022/07/28 00:21:26;;;;;;;2.13;1.30;;;18.40;1.00;;;;;;7362526;19;20069;-70
2022/07/28 00:23:56;;;;;;;5.95;1.67;;;18.60;1.00;;;;;;7361304;19;20396;-70
2022/07/28 00:26:27;;;;;;;4.10;1.50;;;18.40;1.00;;;;;;7357899;19;20037;-69
2022/07/28 00:28:57;;;;;;;4.80;2.05;;;18.30;1.00;;;;;;7357688;19;20022;-69
2022/07/28 00:31:27;;;;;;;3.70;1.85;;;18.20;1.00;;;;;;7362678;19;20089;-69
2022/07/28 00:34:01;;;;;;;6.70;2.00;;;18.10;1.00;;;;;;7381703;19;20014;-70
2022/07/28 00:36:35;;;;;;;3.30;1.35;;;18.20;1.00;;;;;;7356089;19;20021;-68
2022/07/28 00:39:07;;;;;;;5.03;1.58;;;18.10;1.00;;;;;;7358268;19;20014;-68
2022/07/28 00:41:38;;;;;;;3.08;1.75;;;18.10;1.00;;;;;;7361227;19;20049;-69
2022/07/28 00:44:08;;;;;;;3.30;1.48;;;18.10;1.00;;;;;;7360636;19;20014;-69
2022/07/28 00:46:39;;;;;;;2.72;1.35;;;18.10;1.00;;;;;;7356716;19;20050;-69
2022/07/28 00:49:12;;;;;;;3.80;1.33;;;18.00;1.00;;;;;;7359840;19;20025;-68
2022/07/28 00:51:43;;;;;;;5.20;1.58;;;18.00;1.00;;;;;;7384463;19;20010;-68
2022/07/28 00:54:12;;;;;;;5.70;1.42;;;17.90;1.00;;;;;;7360390;19;20471;-70
2022/07/28 00:56:43;;;;;;;5.43;1.30;;;17.80;1.00;;;;;;7354453;19;20010;-68
2022/07/28 00:59:13;;;;;;;6.10;1.75;;;17.80;1.00;;;;;;7360252;19;20038;-68
2022/07/28 01:01:43;;;;;;;2.65;1.40;;;17.90;1.00;;;;;;7361221;19;20010;-69
2022/07/28 01:04:17;;;;;;;3.72;1.63;;;17.80;1.00;;;;;;7360794;19;20014;-69
2022/07/28 01:06:56;;;;;;;4.28;1.42;;;17.90;1.00;;;;;;7375284;19;20022;-68
2022/07/28 01:09:41;;;;;;;5.25;1.77;;;17.80;1.00;;;;;;7359050;19;20013;-68
2022/07/28 01:12:20;;;;;;;4.25;1.38;;;17.70;1.00;;;;;;7361177;19;20007;-69
2022/07/28 01:14:59;;;;;;;3.05;1.48;;;17.70;1.00;;;;;;7359782;19;20022;-69
2022/07/28 01:17:39;;;;;;;3.88;1.30;;;17.60;1.00;;;;;;7353456;19;20530;-68
2022/07/28 01:20:19;;;;;;;6.13;1.73;;;17.60;1.00;;;;;;7361025;19;20024;-68
2022/07/28 01:23:06;;;;;;;3.00;1.08;;;17.60;1.00;;;;;;7360659;19;20014;-69
2022/07/28 01:25:49;;;;;;;4.22;1.60;;;17.70;1.00;;;;;;7360398;19;20017;-68
2022/07/28 01:28:28;;;;;;;3.80;1.30;;;17.60;1.00;;;;;;7354849;19;20702;-68
2022/07/28 01:31:06;;;;;;;3.42;1.30;;;17.60;1.00;;;;;;7380652;19;20015;-70
2022/07/28 01:33:43;;;;;;;3.70;1.10;;;17.60;1.00;;;;;;7382412;19;20015;-69
2022/07/28 01:36:17;;;;;;;4.65;1.73;;;17.50;1.00;;;;;;7354299;19;20021;-69
2022/07/28 01:38:50;;;;;;;2.45;1.30;;;17.50;1.00;;;;;;7356372;19;20007;-68
2022/07/28 01:41:26;;;;;;;3.75;1.55;;;17.40;1.00;;;;;;7359877;19;20459;-69
2022/07/28 01:44:00;;;;;;;4.22;1.40;;;17.40;1.00;;;;;;7360518;19;20017;-68
2022/07/28 01:46:33;;;;;;;3.38;1.60;;;17.30;1.00;;;;;;7356002;19;20006;-68
2022/07/28 01:49:05;;;;;;;3.72;1.50;;;17.40;1.00;;;;;;7357584;19;20014;-68
2022/07/28 01:51:36;;;;;;;3.75;1.40;;;17.40;1.00;;;;;;7382166;19;20003;-68
2022/07/28 01:54:08;;;;;;;2.67;1.25;;;17.40;1.00;;;;;;7366479;19;20086;-68
2022/07/28 01:56:40;;;;;;;4.70;1.35;;;17.40;1.00;;;;;;7360717;19;20030;-68
2022/07/28 01:59:11;;;;;;;3.92;1.35;;;17.40;1.00;;;;;;7364175;19;20013;-68
2022/07/28 02:01:47;;;;;;;4.95;1.73;;;17.40;1.00;;;;;;7366928;19;20410;-68
2022/07/28 02:04:22;;;;;;;4.60;1.58;;;17.20;1.00;;;;;;7366937;19;20750;-68
2022/07/28 02:06:54;;;;;;;4.28;1.23;;;17.30;1.00;;;;;;7379135;19;20011;-68
2022/07/28 02:09:25;;;;;;;3.58;1.48;;;17.20;1.00;;;;;;7365791;19;20022;-68
2022/07/28 02:11:57;;;;;;;5.15;1.40;;;17.20;1.00;;;;;;7367132;19;20476;-68
2022/07/28 02:14:29;;;;;;;6.45;1.38;;;17.10;1.00;;;;;;7364585;19;20014;-68
2022/07/28 02:17:08;;;;;;;2.72;1.20;;;17.00;1.00;;;;;;7358774;19;20402;-68
2022/07/28 02:19:41;;;;;;;3.13;1.38;;;17.00;1.00;;;;;;7364699;19;20014;-68
2022/07/28 02:22:12;;;;;;;6.18;1.40;;;16.90;1.00;;;;;;7365900;19;20017;-68
2022/07/28 02:24:44;;;;;;;5.25;1.30;;;16.90;1.00;;;;;;7386342;19;20025;-67
2022/07/28 02:27:21;;;;;;;6.15;1.25;;;16.90;1.00;;;;;;7355952;19;20010;-68
2022/07/28 02:29:52;;;;;;;3.28;1.50;;;16.80;1.00;;;;;;7364735;19;20013;-68
2022/07/28 02:32:30;;;;;;;7.00;1.63;;;16.90;1.00;;;;;;7366679;19;20081;-68
2022/07/28 02:35:06;;;;;;;4.90;1.35;;;16.80;1.00;;;;;;7365018;19;20109;-68
2022/07/28 02:37:41;;;;;;;5.18;2.03;;;16.80;1.00;;;;;;7355118;19;20042;-68
2022/07/28 02:40:15;;;;;;;2.70;1.13;;;16.80;1.00;;;;;;7366432;19;20470;-68
2022/07/28 02:42:49;;;;;;;2.80;1.50;;;16.80;1.00;;;;;;7385297;19;20025;-68
2022/07/28 02:45:24;;;;;;;2.83;1.38;;;16.70;1.00;;;;;;7365868;19;20015;-68
2022/07/28 02:48:01;;;;;;;2.83;1.42;;;16.70;1.00;;;;;;7355626;19;20168;-68
2022/07/28 02:50:31;;;;;;;3.10;1.13;;;16.70;1.00;;;;;;7364619;19;20006;-68
2022/07/28 02:53:03;;;;;;;3.70;1.23;;;16.70;1.00;;;;;;7366706;19;20037;-68
2022/07/28 02:55:47;;;;;;;2.63;1.27;;;16.70;1.00;;;;;;7364377;19;20577;-68
2022/07/28 02:58:19;;;;;;;7.53;1.80;;;16.60;1.00;;;;;;7360075;19;20007;-69
2022/07/28 03:00:50;;;;;;;4.28;1.60;;;16.60;1.00;;;;;;7387201;19;20006;-69
2022/07/28 03:03:24;;;;;;;4.00;1.52;;;16.60;1.00;;;;;;7363132;19;20007;-69
2022/07/28 03:05:54;;;;;;;2.85;1.42;;;16.60;1.00;;;;;;7359793;19;20021;-68
2022/07/28 03:08:24;;;;;;;2.83;1.48;;;16.60;1.00;;;;;;7359894;19;20466;-68
2022/07/28 03:11:08;;;;;;;11.68;1.40;;;16.70;1.00;;;;;;7362957;19;20006;-69
2022/07/28 03:13:38;;;;;;;2.35;1.30;;;16.70;1.00;;;;;;7364919;19;20077;-68
2022/07/28 03:16:09;;;;;;;4.05;1.35;;;16.60;1.00;;;;;;7359746;19;20026;-69
2022/07/28 03:18:41;;;;;;;5.22;1.50;;;16.60;1.00;;;;;;7381351;19;20018;-68
2022/07/28 03:21:11;;;;;;;4.38;1.10;;;16.50;1.00;;;;;;7361257;19;20006;-68
2022/07/28 03:23:44;;;;;;;3.00;1.38;;;16.40;1.00;;;;;;7363747;19;20026;-68
2022/07/28 03:26:18;;;;;;;5.78;1.30;;;16.40;1.00;;;;;;7359222;19;20544;-68
2022/07/28 03:28:51;;;;;;;10.85;1.75;;;16.40;1.00;;;;;;7359190;19;20109;-68
2022/07/28 03:31:23;;;;;;;2.28;1.15;;;16.30;1.00;;;;;;7364389;19;20933;-68
2022/07/28 03:33:55;;;;;;;3.28;1.50;;;16.20;1.00;;;;;;7386604;19;20525;-68
2022/07/28 03:36:32;;;;;;;3.42;1.20;;;16.20;1.00;;;;;;7359936;19;20094;-69
2022/07/28 03:39:05;;;;;;;2.80;1.55;;;16.20;1.00;;;;;;7359680;19;20025;-68
2022/07/28 03:41:35;;;;;;;3.50;1.60;;;16.10;1.00;;;;;;7363268;19;20073;-68
2022/07/28 03:44:07;;;;;;;3.55;1.33;;;16.10;1.00;;;;;;7364195;19;20015;-68
2022/07/28 03:46:37;;;;;;;2.53;1.33;;;16.10;1.00;;;;;;7359614;19;20482;-68
2022/07/28 03:49:12;;;;;;;3.08;1.35;;;16.10;1.00;;;;;;7361098;19;20021;-68
2022/07/28 03:51:42;;;;;;;4.82;1.48;;;16.00;1.00;;;;;;7385172;19;20025;-68
2022/07/28 03:54:11;;;;;;;2.90;1.50;;;16.00;1.00;;;;;;7364400;19;20521;-68
2022/07/28 03:56:42;;;;;;;3.30;1.38;;;16.10;1.00;;;;;;7356264;19;20022;-68
2022/07/28 03:59:12;;;;;;;5.43;1.42;;;16.10;1.00;;;;;;7362135;19;20454;-67
2022/07/28 04:01:43;;;;;;;4.20;1.50;;;16.10;1.00;;;;;;7362961;19;20024;-68
2022/07/28 04:04:16;;;;;;;4.45;1.30;;;16.10;1.00;;;;;;7363101;19;20014;-68
2022/07/28 04:06:47;;;;;;;4.25;1.42;;;16.10;1.00;;;;;;7377266;19;20014;-68
2022/07/28 04:09:17;;;;;;;5.50;1.80;;;16.20;1.00;;;;;;7361388;19;20090;-68
2022/07/28 04:11:47;;;;;;;5.75;1.70;;;16.20;1.00;;;;;;7361970;19;20506;-68
2022/07/28 04:14:16;;;;;;;3.58;1.25;;;16.20;1.00;;;;;;7363773;19;20077;-68
2022/07/28 04:16:47;;;;;;;7.93;2.00;;;16.10;1.00;;;;;;7354357;19;20014;-68
2022/07/28 04:19:20;;;;;;;4.45;1.40;;;16.20;1.00;;;;;;7360903;19;20010;-68
2022/07/28 04:21:50;;;;;;;5.20;1.40;;;16.40;1.00;;;;;;7383869;19;20596;-68
2022/07/28 04:24:19;;;;;;;2.95;1.48;;;16.50;1.00;;;;;;7361134;19;20710;-68
2022/07/28 04:26:49;;;;;;;4.53;1.33;;;16.70;1.00;;;;;;7353842;19;20011;-68
2022/07/28 04:29:22;;;;;;;5.10;1.90;;;16.70;1.00;;;;;;7362704;19;20003;-68
2022/07/28 04:31:56;;;;;;;;;;;16.70;1.00;;;;;;7362433;19;20017;-68
2022/07/28 04:34:28;;;;;;;3.50;1.55;;;16.60;1.00;;;;;;7363304;19;19921;-68
2022/07/28 04:36:58;;;;;;;3.85;1.30;;;16.70;1.00;;;;;;7375719;19;20021;-68
2022/07/28 04:39:28;;;;;;;6.38;1.48;;;16.60;1.00;;;;;;7361341;19;20006;-68
2022/07/28 04:41:58;;;;;;;4.57;1.50;;;16.70;1.00;;;;;;7361031;19;20082;-69
2022/07/28 04:44:28;;;;;;;6.05;1.50;;;16.90;1.00;;;;;;7362236;19;20355;-68
2022/07/28 04:46:57;;;;;;;3.33;1.55;;;16.90;1.00;;;;;;7354095;19;20006;-68
2022/07/28 04:49:30;;;;;;;2.70;1.40;;;16.90;1.00;;;;;;7360439;19;20054;-68
2022/07/28 04:52:05;;;;;;;2.65;1.50;;;17.00;1.00;;;;;;7361628;19;20010;-69
2022/07/28 04:54:34;;;;;;;4.03;1.40;;;17.10;1.00;;;;;;7384328;19;20492;-68
2022/07/28 04:57:05;;;;;;;3.72;1.30;;;17.10;1.00;;;;;;7352143;19;20011;-68
2022/07/28 04:59:41;;;;;;;6.30;1.77;;;17.40;1.00;;;;;;7360844;19;20011;-68
2022/07/28 05:02:11;;;;;;;7.60;1.67;;;17.50;1.00;;;;;;7360977;19;20050;-68
2022/07/28 05:04:46;;;;;;;4.95;1.90;;;17.30;1.00;;;;;;7361457;19;20011;-69
2022/07/28 05:07:16;;;;;;;4.70;2.00;;;17.10;1.00;;;;;;7353514;19;20003;-70
2022/07/28 05:09:46;;;;;;;4.60;1.80;;;17.40;1.00;;;;;;7382157;19;20093;-67
2022/07/28 05:12:16;;;;;;;2.20;1.65;;;17.40;1.00;;;;;;7360070;19;20947;-68
2022/07/28 05:14:46;;;;;;;3.30;1.83;;;18.70;1.00;;;;;;7360286;19;20055;-67
2022/07/28 05:17:16;;;;;;;4.00;1.40;;;19.10;1.00;;;;;;7353306;19;20456;-68
2022/07/28 05:19:48;;;;;;;5.10;1.98;;;19.50;1.00;;;;;;7361130;19;20081;-69
2022/07/28 05:22:18;;;;;;;5.30;2.22;;;19.60;1.00;;;;;;7361273;19;20174;-69
2022/07/28 05:24:48;;;;;;;6.72;1.70;;;20.70;1.00;;;;;;7380602;19;20042;-68
2022/07/28 05:27:19;;;;;;;4.53;1.77;;;21.20;1.00;;;;;;7353289;19;20011;-69
2022/07/28 05:29:49;;;;;;;2.70;1.50;;;20.30;1.00;;;;;;7367916;19;20466;-68
2022/07/28 05:32:20;;;;;;;3.08;2.08;;;20.40;1.00;;;;;;7368000;19;20014;-68
2022/07/28 05:34:52;;;;;;;3.88;2.00;;;19.20;1.00;;;;;;7367854;19;20042;-69
2022/07/28 05:37:22;;;;;;;7.03;1.70;;;18.50;1.00;;;;;;7358526;19;20438;-67
2022/07/28 05:39:52;;;;;;;3.10;2.05;;;20.10;1.00;;;;;;7388637;19;20547;-68
2022/07/28 05:42:24;;;;;;;5.55;2.17;;;20.70;1.00;;;;;;7366609;19;20006;-67
2022/07/28 05:44:54;;;;;;;3.38;1.73;;;20.20;1.00;;;;;;7363652;19;20019;-68
2022/07/28 05:47:24;;;;;;;4.90;2.20;;;22.10;1.00;;;;;;7359145;19;20010;-67
2022/07/28 05:50:00;;;;;;;4.68;1.83;;;21.70;1.00;;;;;;7365583;19;20014;-68
2022/07/28 05:52:31;;;;;;;3.72;2.03;;;21.50;1.00;;;;;;7367642;19;20006;-68
2022/07/28 05:55:01;;;;;;;5.43;1.92;;;19.90;1.00;;;;;;7367254;19;20698;-69
2022/07/28 05:57:31;;;;;;;5.93;1.83;;;20.70;1.00;;;;;;7376972;19;20438;-67
2022/07/28 06:00:01;;;;;;;4.45;2.03;;;22.50;1.00;;;;;;7364624;19;20746;-68
2022/07/28 06:02:30;;;;;;;4.32;1.83;;;20.80;1.00;;;;;;7366450;19;20007;-68
2022/07/28 06:05:05;;;;;;;6.55;2.15;;;19.70;1.00;;;;;;7366670;19;20010;-68
2022/07/28 06:07:35;;;;;;;;;;;19.50;1.00;;;;;;7358367;19;20013;-68
2022/07/28 06:10:13;;;;;;;4.63;2.33;;;19.30;1.00;;;;;;7364728;19;19914;-68
2022/07/28 06:12:44;;;;;;;6.10;2.20;;;19.30;1.00;;;;;;7388878;19;20007;-68
2022/07/28 06:15:15;;;;;;;11.88;2.72;;;19.80;1.00;;;;;;7366191;19;20082;-68
2022/07/28 06:17:45;;;;;;;4.50;2.10;;;19.70;1.00;;;;;;7356676;19;20021;-69
2022/07/28 06:20:18;;;;;;;6.85;2.97;;;19.90;1.00;;;;;;7366070;19;20097;-68
2022/07/28 06:22:50;;;;;;;8.43;2.47;;;20.20;1.00;;;;;;7365416;19;20086;-68
2022/07/28 06:25:22;;;;;;;7.20;2.50;;;21.30;1.00;;;;;;7362522;19;20010;-68
2022/07/28 06:27:54;;;;;;;5.68;2.22;;;21.70;1.00;;;;;;7375544;19;20374;-67
2022/07/28 06:30:24;;;;;;;6.82;2.20;;;21.50;1.00;;;;;;7363423;19;20466;-68
2022/07/28 06:32:54;;;;;;;6.38;2.42;;;21.20;1.00;;;;;;7363211;19;20558;-68
2022/07/28 06:35:27;;;;;;;5.22;2.35;;;20.90;1.00;;;;;;7363083;19;20021;-69
2022/07/28 06:37:57;;;;;;;4.72;2.47;;;21.60;1.00;;;;;;7352865;19;20018;-68
2022/07/28 06:40:27;;;;;;;7.43;2.40;;;21.40;1.00;;;;;;7362346;19;20040;-68
2022/07/28 06:42:57;;;;;;;7.35;2.78;;;22.10;1.00;;;;;;7386119;19;20086;-68
2022/07/28 06:45:27;;;;;;;10.77;2.80;;;21.40;1.00;;;;;;7362107;19;20017;-67
2022/07/28 06:47:57;;;;;;;11.20;2.90;;;20.30;1.00;;;;;;7353982;19;20470;-67
2022/07/28 06:50:30;;;;;;;3.65;2.88;;;20.80;1.00;;;;;;7363364;19;20003;-67
2022/07/28 06:53:00;;;;;;;9.55;3.33;;;20.80;1.00;;;;;;7363833;19;21164;-68
2022/07/28 06:55:30;;;;;;;5.88;3.33;;;20.90;1.00;;;;;;7363032;19;20099;-68
2022/07/28 06:58:04;;;;;;;;;;;20.80;1.00;;;;;;7354737;19;20018;-69
2022/07/28 07:00:34;;;;;;;4.43;2.88;;;21.00;1.00;;;;;;7383764;19;19927;-69
2022/07/28 07:03:04;;;;;;;8.63;2.83;;;20.60;1.00;;;;;;7360931;19;20085;-69
2022/07/28 07:05:41;;;;;;;9.82;3.00;;;21.10;1.00;;;;;;7360770;19;20013;-67
2022/07/28 07:08:11;;;;;;;8.35;3.20;;;21.30;1.00;;;;;;7354976;19;20010;-68
2022/07/28 07:10:40;;;;;;;6.05;3.25;;;21.20;1.00;;;;;;7362224;19;20021;-67
2022/07/28 07:13:10;;;;;;;6.57;3.15;;;20.80;1.00;;;;;;7363261;19;20016;-68
2022/07/28 07:15:42;;;;;;;8.88;3.30;;;21.00;1.00;;;;;;7382850;19;20011;-67
2022/07/28 07:18:12;;;;;;;5.93;3.33;;;21.10;1.00;;;;;;7354719;19;20038;-68
2022/07/28 07:20:45;;;;;;;6.55;3.17;;;21.40;1.00;;;;;;7211004;19;2959377;-68
2022/07/28 07:23:15;;;;;;;6.03;3.33;;;21.60;1.00;;;;;;7364438;19;20015;-68
2022/07/28 07:25:45;;;;;;;7.95;3.20;;;21.60;1.00;;;;;;7361631;19;20021;-68
2022/07/28 07:28:14;;;;;;;9.13;5.55;;;21.40;1.00;;;;;;7358176;19;20014;-69
2022/07/28 07:30:45;;;;;;;5.70;3.45;;;21.80;1.00;;;;;;7385537;19;20002;-68
2022/07/28 07:33:15;;;;;;;11.88;3.80;;;22.20;1.00;;;;;;7364414;19;20022;-69
2022/07/28 07:35:47;;;;;;;10.70;3.47;;;22.20;1.00;;;;;;7362567;19;20020;-70
2022/07/28 07:38:17;;;;;;;12.40;3.55;;;22.50;1.00;;;;;;7358227;19;20085;-69
2022/07/28 07:40:47;;;;;;;7.55;3.47;;;23.00;1.00;;;;;;7363379;19;20085;-68
2022/07/28 07:43:17;;;;;;;8.38;3.88;;;22.70;1.00;;;;;;7365257;19;20334;-68
2022/07/28 07:45:47;;;;;;;8.13;3.58;;;22.90;1.00;;;;;;7381813;19;20475;-68
2022/07/28 07:48:17;;;;;;;12.32;3.70;;;22.60;1.00;;;;;;7357610;19;20010;-68
2022/07/28 07:50:50;;;;;;;8.05;3.58;;;22.60;1.00;;;;;;7360520;19;20020;-68
2022/07/28 07:53:23;;;;;;;4.72;3.58;;;23.30;1.00;;;;;;7363809;19;20006;-69
2022/07/28 07:55:53;;;;;;;7.13;3.90;;;23.30;1.00;;;;;;7359719;19;20073;-68
2022/07/28 07:58:23;;;;;;;9.40;4.03;;;23.10;1.00;;;;;;7357949;19;20085;-69
2022/07/28 08:00:53;;;;;;;6.13;4.10;;;23.10;1.00;;;;;;7382048;19;20018;-68
2022/07/28 08:03:23;;;;;;;5.82;3.92;;;22.90;1.00;;;;;;7363111;19;20007;-68
2022/07/28 08:05:57;;;;;;;6.05;4.47;;;23.00;1.00;;;;;;7358194;19;20050;-69
2022/07/28 08:08:28;;;;;;;8.18;4.43;;;23.00;1.00;;;;;;7358479;19;20030;-68
2022/07/28 08:10:58;;;;;;;5.63;4.63;;;23.10;1.00;;;;;;7361118;19;20106;-68
2022/07/28 08:13:32;;;;;;;5.78;4.38;;;22.80;1.00;;;;;;7363289;19;20109;-67
2022/07/28 08:16:02;;;;;;;9.35;4.60;;;22.90;1.00;;;;;;7358421;19;20010;-68
2022/07/28 08:18:32;;;;;;;6.57;4.03;;;23.10;1.00;;;;;;7378070;19;20015;-68
2022/07/28 08:21:05;;;;;;;5.82;4.10;;;23.20;1.00;;;;;;7360897;19;20014;-69
2022/07/28 08:23:35;;;;;;;4.97;4.45;;;23.60;1.00;;;;;;7361332;19;20089;-69
2022/07/28 08:26:05;;;;;;;5.80;4.30;;;23.20;1.00;;;;;;7355837;19;20018;-68
2022/07/28 08:28:35;;;;;;;7.13;4.45;;;23.50;1.00;;;;;;7356142;19;20020;-69
2022/07/28 08:31:04;;;;;;;5.15;4.28;;;23.70;1.00;;;;;;7359974;19;20592;-68
2022/07/28 08:33:34;;;;;;;8.32;4.40;;;23.40;1.00;;;;;;7383245;19;20042;-69
2022/07/28 08:36:25;;;;;;;6.00;4.50;;;23.40;1.00;;;;;;7355780;19;20106;-67
2022/07/28 08:38:55;;;;;;;6.13;4.07;;;23.80;1.00;;;;;;7357346;19;20015;-68
2022/07/28 08:41:31;;;;;;;5.47;4.50;;;23.70;1.00;;;;;;7360975;19;20013;-68
2022/07/28 08:44:05;;;;;;;4.70;4.30;;;23.80;1.00;;;;;;7359623;19;20014;-68
2022/07/28 08:46:37;;;;;;;7.95;4.90;;;24.00;1.00;;;;;;7354666;19;20025;-68
2022/07/28 08:49:09;;;;;;;5.95;4.35;;;23.60;1.00;;;;;;7359271;19;20022;-68
2022/07/28 08:51:48;;;;;;;5.72;4.20;;;23.80;1.00;;;;;;7382546;19;20068;-69
2022/07/28 08:54:22;;;;;;;6.13;4.13;;;24.20;1.00;;;;;;7360849;19;20016;-69
2022/07/28 08:56:52;;;;;;;8.88;4.25;;;24.60;1.00;;;;;;7352302;19;20011;-68
2022/07/28 08:59:22;;;;;;;4.82;4.07;;;24.30;1.00;;;;;;7358686;19;20114;-69
2022/07/28 09:01:54;;;;;;;6.28;4.00;;;24.80;1.00;;;;;;7359958;19;20045;-69
2022/07/28 09:04:27;;;;;;;6.45;4.68;;;24.80;1.00;;;;;;7362420;19;20025;-69
2022/07/28 09:07:00;;;;;;;6.57;4.30;;;24.70;1.00;;;;;;7373627;19;20454;-68
2022/07/28 09:09:30;;;;;;;4.65;4.13;;;24.50;1.00;;;;;;7359026;19;20019;-69
2022/07/28 09:12:00;;;;;;;9.07;4.18;;;24.90;1.00;;;;;;7359632;19;20601;-69
2022/07/28 09:14:30;;;;;;;6.65;4.63;;;24.90;1.00;;;;;;7362123;19;20010;-69
2022/07/28 09:17:01;;;;;;;7.65;4.68;;;24.50;1.00;;;;;;7353260;19;20010;-69
2022/07/28 09:19:36;;;;;;;6.00;4.45;;;24.60;1.00;;;;;;7359496;19;20042;-68
2022/07/28 09:22:09;;;;;;;6.93;4.50;;;24.60;1.00;;;;;;7360175;19;20018;-69
2022/07/28 09:24:40;;;;;;;8.15;4.60;;;24.60;1.00;;;;;;7383880;19;20021;-68
2022/07/28 09:27:12;;;;;;;6.18;4.45;;;24.70;1.00;;;;;;7351803;19;20029;-68
2022/07/28 09:29:46;;;;;;;6.10;4.57;;;25.20;1.00;;;;;;7357350;19;20533;-69
2022/07/28 09:32:18;;;;;;;5.03;4.00;;;24.60;1.00;;;;;;7359054;19;20094;-69
2022/07/28 09:34:49;;;;;;;6.05;4.47;;;25.30;1.00;;;;;;7360194;19;20017;-70
2022/07/28 09:37:24;;;;;;;6.22;4.28;;;25.30;1.00;;;;;;7350247;19;20022;-69
2022/07/28 09:39:59;;;;;;;9.10;4.93;;;25.30;1.00;;;;;;7379501;19;20018;-69
2022/07/28 09:42:48;;;;;;;5.82;4.45;;;25.70;1.00;;;;;;7358747;19;20026;-69
2022/07/28 09:45:18;;;;;;;6.85;4.53;;;26.00;1.00;;;;;;7358475;19;20048;-68
2022/07/28 09:48:10;;;;;;;5.32;4.63;;;25.90;1.00;;;;;;7351604;19;20006;-68
2022/07/28 09:50:41;;;;;;;6.63;4.47;;;25.80;1.00;;;;;;7357404;19;20050;-70
2022/07/28 09:53:28;;;;;;;6.90;4.68;;;25.80;1.00;;;;;;7358021;19;20536;-68
2022/07/28 09:56:03;;;;;;;8.05;4.57;;;25.70;1.00;;;;;;7353071;19;20025;-69
2022/07/28 09:58:33;;;;;;;5.30;4.30;;;25.80;1.00;;;;;;7353898;19;20007;-69
2022/07/28 10:01:05;;;;;;;5.70;3.83;;;26.10;1.00;;;;;;7358880;19;20010;-68
2022/07/28 10:03:37;;;;;;;6.13;3.83;;;26.20;1.00;;;;;;7380352;19;20106;-69
2022/07/28 10:06:10;;;;;;;5.40;4.38;;;26.90;1.00;;;;;;7352691;19;20386;-69
2022/07/28 10:08:47;;;;;;;5.55;4.25;;;26.50;1.00;;;;;;7354430;19;20075;-68
2022/07/28 10:11:19;;;;;;;6.93;4.05;;;26.40;1.00;;;;;;7357167;19;20521;-69
2022/07/28 10:13:59;;;;;;;6.00;3.83;;;26.60;1.00;;;;;;7360784;19;20010;-69
2022/07/28 10:16:29;;;;;;;9.38;4.53;;;26.70;1.00;;;;;;7361104;19;20010;-68
2022/07/28 10:19:01;;;;;;;5.32;4.22;;;26.80;1.00;;;;;;7371305;19;20010;-69
2022/07/28 10:21:36;;;;;;;5.57;4.00;;;26.90;1.00;;;;;;7386642;19;20019;-69
2022/07/28 10:24:10;;;;;;;21.98;4.05;;;26.80;1.00;;;;;;7364197;19;20033;-69
2022/07/28 10:26:45;;;;;;;6.53;4.60;;;26.80;1.00;;;;;;7358753;19;20020;-70
2022/07/28 10:29:17;;;;;;;6.25;3.90;;;27.10;1.00;;;;;;7364085;19;20053;-70
2022/07/28 10:31:52;;;;;;;7.10;4.70;;;27.50;1.00;;;;;;7364691;19;20410;-69
2022/07/28 10:34:24;;;;;;;5.65;3.67;;;27.30;1.00;;;;;;7365793;19;20010;-69
2022/07/28 10:36:57;;;;;;;5.20;3.70;;;27.50;1.00;;;;;;7377717;19;20019;-69
2022/07/28 10:39:38;;;;;;;4.15;3.75;;;27.80;1.00;;;;;;7364062;19;20032;-68
2022/07/28 10:42:11;;;;;;;4.32;3.90;;;28.10;1.00;;;;;;7363769;19;20011;-69
2022/07/28 10:44:44;;;;;;;8.40;4.85;;;27.60;1.00;;;;;;7364487;19;20470;-69
2022/07/28 10:47:14;;;;;;;5.75;4.00;;;27.20;1.00;;;;;;7355634;19;20014;-70
2022/07/28 10:49:49;;;;;;;7.82;4.20;;;27.10;1.00;;;;;;7363283;19;20073;-70
2022/07/28 10:52:21;;;;;;;4.70;4.13;;;26.60;1.00;;;;;;7364634;19;20083;-70
2022/07/28 10:55:21;;;;;;;5.63;4.22;;;27.50;1.00;;;;;;7365661;19;20049;-69
2022/07/28 10:58:02;;;;;;;4.95;3.85;;;28.00;1.00;;;;;;7380864;19;20011;-70
2022/07/28 11:00:48;;;;;;;4.57;3.70;;;28.00;1.00;;;;;;7363545;19;20045;-70
2022/07/28 11:03:39;;;;;;;5.07;3.37;;;27.80;1.00;;;;;;7364858;19;20014;-70
2022/07/28 11:06:29;;;;;;;4.55;3.67;;;27.60;1.00;;;;;;7359034;19;21324;-69
2022/07/28 11:09:01;;;;;;;5.45;4.00;;;27.80;1.00;;;;;;7360065;19;20454;-69
2022/07/28 11:11:49;;;;;;;7.10;3.78;;;27.60;1.00;;;;;;7364872;19;20074;-69
2022/07/28 11:14:35;;;;;;;6.10;3.95;;;27.40;1.00;;;;;;7364466;19;20021;-70
2022/07/28 11:17:20;;;;;;;6.40;3.72;;;27.50;1.00;;;;;;7357655;19;20017;-70
2022/07/28 11:20:02;;;;;;;4.28;3.65;;;28.10;1.00;;;;;;7348115;19;20043;-70
2022/07/28 11:22:52;;;;;;;7.15;4.00;;;28.50;1.00;;;;;;7362492;19;20371;-69
2022/07/28 11:25:22;;;;;;;3.92;3.30;;;27.70;1.00;;;;;;7361005;19;20635;-69
2022/07/28 11:28:08;;;;;;;6.38;3.63;;;27.50;1.00;;;;;;7376454;19;20486;-70
2022/07/28 11:30:56;;;;;;;5.10;4.05;;;28.20;1.00;;;;;;7361998;19;20522;-69
2022/07/28 11:33:57;;;;;;;10.95;3.72;;;28.10;1.00;;;;;;7361633;19;20066;-69
2022/07/28 11:37:03;;;;;;;3.67;3.38;;;27.70;1.00;;;;;;7358855;19;20069;-70
2022/07/28 11:39:35;;;;;;;5.57;3.35;;;27.60;1.00;;;;;;7363100;19;20608;-70
2022/07/28 11:42:28;;;;;;;5.80;3.58;;;27.70;1.00;;;;;;7362525;19;20094;-69
2022/07/28 11:45:25;;;;;;;4.03;2.90;;;27.70;1.00;;;;;;7363027;19;20015;-70
2022/07/28 11:48:15;;;;;;;5.75;3.17;;;28.10;1.00;;;;;;7354103;19;20018;-70
2022/07/28 11:51:05;;;;;;;4.35;3.25;;;28.20;1.00;;;;;;7361136;19;20018;-70
2022/07/28 11:53:36;;;;;;;5.43;3.65;;;28.10;1.00;;;;;;7362111;19;20466;-69
2022/07/28 11:56:08;;;;;;;7.15;3.60;;;28.60;1.00;;;;;;7357507;19;20011;-70
2022/07/28 11:58:38;;;;;;;3.67;3.30;;;28.90;1.00;;;;;;7359553;19;20020;-70
2022/07/28 12:01:16;;;;;;;5.68;4.13;;;28.90;1.00;;;;;;7363212;19;20025;-70
2022/07/28 12:03:50;;;;;;;6.15;3.80;;;28.80;1.00;;;;;;7383206;19;20014;-69
2022/07/28 12:06:26;;;;;;;8.82;3.67;;;28.10;1.00;;;;;;7357095;19;20015;-69
2022/07/28 12:09:00;;;;;;;6.25;3.85;;;28.30;1.00;;;;;;7357379;19;20014;-70
2022/07/28 12:11:34;;;;;;;4.72;3.22;;;28.30;1.00;;;;;;7362718;19;20481;-71
2022/07/28 12:14:06;;;;;;;6.18;3.15;;;28.20;1.00;;;;;;7362340;19;20023;-69
2022/07/28 12:16:41;;;;;;;4.20;3.80;;;28.40;1.00;;;;;;7357034;19;20017;-68
2022/07/28 12:19:13;;;;;;;4.60;3.65;;;28.60;1.00;;;;;;7360010;19;20021;-69
2022/07/28 12:21:45;;;;;;;6.13;3.58;;;29.10;1.00;;;;;;7383284;19;20025;-70
2022/07/28 12:24:19;;;;;;;6.18;3.90;;;29.00;1.00;;;;;;7363507;19;20022;-69
2022/07/28 12:26:50;;;;;;;7.95;3.67;;;29.10;1.00;;;;;;7354314;19;20010;-70
2022/07/28 12:29:20;;;;;;;5.65;3.78;;;29.20;1.00;;;;;;7361923;19;20014;-70
2022/07/28 12:31:59;;;;;;;6.38;3.55;;;29.50;1.00;;;;;;7360976;19;20015;-70
2022/07/28 12:34:29;;;;;;;5.93;3.65;;;29.50;1.00;;;;;;7362417;19;20373;-69
2022/07/28 12:37:01;;;;;;;5.43;3.83;;;30.10;1.00;;;;;;7364148;19;20014;-69
2022/07/28 12:39:33;;;;;;;4.28;3.58;;;29.80;1.00;;;;;;7382884;19;20098;-68
2022/07/28 12:42:04;;;;;;;8.35;3.65;;;29.40;1.00;;;;;;7359373;19;20011;-69
2022/07/28 12:44:39;;;;;;;7.70;3.83;;;30.00;1.00;;;;;;7361712;19;20074;-69
2022/07/28 12:47:13;;;;;;;7.80;3.78;;;29.20;1.00;;;;;;7353990;19;20056;-70
2022/07/28 12:49:45;;;;;;;4.38;3.17;;;29.70;1.00;;;;;;7359663;19;20006;-68
2022/07/28 12:52:19;;;;;;;3.65;3.30;;;30.20;1.00;;;;;;7359522;19;20478;-69
2022/07/28 12:54:52;;;;;;;5.88;3.50;;;29.70;1.00;;;;;;7383096;19;20014;-68
2022/07/28 12:57:42;;;;;;;3.97;3.45;;;29.70;1.00;;;;;;7352616;19;20087;-69
2022/07/28 13:00:21;;;;;;;4.05;3.55;;;30.00;1.00;;;;;;7359992;19;20007;-69
2022/07/28 13:02:56;;;;;;;4.72;3.80;;;29.60;1.00;;;;;;7360013;19;20011;-69
2022/07/28 13:06:01;;;;;;;6.95;3.83;;;29.20;1.00;;;;;;7360839;19;20021;-71
2022/07/28 13:08:27;;;;;;;4.38;3.65;;;29.20;1.00;;;;;;7355923;19;20093;-69
2022/07/28 13:10:58;;;;;;;6.57;3.70;;;29.40;1.00;;;;;;7359090;19;20040;-69
2022/07/28 13:13:28;;;;;;;3.97;3.20;;;29.30;1.00;;;;;;7359378;19;20082;-70
2022/07/28 13:16:14;;;;;;;3.80;3.15;;;29.50;1.00;;;;;;7378243;19;20017;-69
2022/07/28 13:18:48;;;;;;;3.70;3.33;;;29.60;1.00;;;;;;7355882;19;20038;-71
2022/07/28 13:21:40;;;;;;;4.03;3.10;;;29.60;1.00;;;;;;7360236;19;20037;-70
2022/07/28 13:24:28;;;;;;;5.10;3.20;;;30.00;1.00;;;;;;7360334;19;20014;-68
2022/07/28 13:26:58;;;;;;;8.75;3.13;;;30.00;1.00;;;;;;7350553;19;20101;-69
2022/07/28 13:29:28;;;;;;;3.85;3.40;;;29.70;1.00;;;;;;7356356;19;20382;-68
2022/07/28 13:31:58;;;;;;;6.03;3.10;;;29.70;1.00;;;;;;7359828;19;20014;-69